Time,TemperatureF,DewpointF,PressureIn,WindDirection,WindDirectionDegrees,WindSpeedMPH,WindSpeedGustMPH,Humidity,HourlyPrecipIn,Conditions,Clouds,dailyrainin,SoftwareType,DateUTC
2013-03-10 00:00:00,41.7,39.9,29.73,WNW,302,13.0,21.0,93,0.00,,,0.90,meteohub,2013-03-10 06:00:00,
2013-03-10 00:05:00,41.7,39.9,29.74,WNW,303,12.0,21.0,93,0.00,,,0.00,meteohub,2013-03-10 06:05:00,
2013-03-10 00:10:00,41.5,39.7,29.76,WNW,300,14.0,21.0,93,0.00,,,0.00,meteohub,2013-03-10 06:10:00,
2013-03-10 00:16:00,41.5,39.9,29.75,NW,304,8.0,19.0,94,0.00,,,0.00,meteohub,2013-03-10 06:16:00,
2013-03-10 00:21:00,41.7,40.1,29.75,WNW,283,10.0,19.0,94,0.00,,,0.00,meteohub,2013-03-10 06:21:00,
2013-03-10 00:26:00,41.7,40.1,29.77,WNW,288,9.0,17.0,94,0.00,,,0.00,meteohub,2013-03-10 06:26:00,
2013-03-10 00:31:00,41.7,40.1,29.78,West,280,11.0,23.0,94,0.00,,,0.00,meteohub,2013-03-10 06:31:00,
2013-03-10 00:36:00,41.5,39.9,29.79,WSW,250,11.0,23.0,94,0.00,,,0.00,meteohub,2013-03-10 06:36:00,
2013-03-10 00:41:00,41.5,39.9,29.78,West,280,9.0,23.0,94,0.00,,,0.00,meteohub,2013-03-10 06:41:00,
2013-03-10 00:46:00,41.5,39.9,29.77,WNW,285,14.0,19.0,94,0.00,,,0.00,meteohub,2013-03-10 06:46:00,
2013-03-10 00:51:00,41.4,39.6,29.78,WNW,300,9.0,19.0,93,0.00,,,0.00,meteohub,2013-03-10 06:51:00,
2013-03-10 00:56:00,41.4,39.7,29.78,WNW,290,10.0,19.0,94,0.00,,,0.00,meteohub,2013-03-10 06:56:00,
2013-03-10 01:01:00,41.0,39.2,29.78,West,278,10.0,19.0,93,0.00,,,0.00,meteohub,2013-03-10 07:01:00,
2013-03-10 01:06:00,40.6,38.8,29.78,NW,307,8.0,19.0,93,0.00,,,0.00,meteohub,2013-03-10 07:06:00,
2013-03-10 01:11:00,40.5,38.7,29.79,WNW,283,11.0,21.0,93,0.00,,,0.00,meteohub,2013-03-10 07:11:00,
2013-03-10 01:16:00,40.3,38.7,29.80,NW,307,13.0,21.0,94,0.00,,,0.00,meteohub,2013-03-10 07:16:00,
2013-03-10 01:21:00,39.9,38.1,29.81,WNW,288,9.0,21.0,93,0.00,,,0.00,meteohub,2013-03-10 07:21:00,
2013-03-10 01:26:00,39.9,38.1,29.81,West,277,15.0,21.0,93,0.00,,,0.00,meteohub,2013-03-10 07:26:00,
2013-03-10 01:31:00,39.9,38.1,29.81,WNW,285,11.0,20.0,93,0.00,,,0.00,meteohub,2013-03-10 07:31:00,
2013-03-10 01:36:00,39.7,37.9,29.81,NW,323,10.0,20.0,93,0.00,,,0.00,meteohub,2013-03-10 07:36:00,
2013-03-10 01:41:00,39.7,37.9,29.81,WNW,288,14.0,19.0,93,0.00,,,0.00,meteohub,2013-03-10 07:41:00,
2013-03-10 01:46:00,39.7,37.9,29.81,WNW,297,13.0,19.0,93,0.00,,,0.00,meteohub,2013-03-10 07:46:00,
2013-03-10 01:51:00,39.6,37.4,29.81,WNW,283,17.0,20.0,92,0.00,,,0.00,meteohub,2013-03-10 07:51:00,
2013-03-10 01:56:00,39.4,37.2,29.81,WNW,298,16.0,20.0,92,0.00,,,0.00,meteohub,2013-03-10 07:56:00,
2013-03-10 03:01:00,39.4,37.6,29.81,NW,312,9.0,-999.0,93,-99.99,,,0.00,meteohub,2013-03-10 08:01:00,
2013-03-10 03:06:00,39.0,37.2,29.81,WNW,297,11.0,-999.0,93,-99.99,,,0.00,meteohub,2013-03-10 08:06:00,
2013-03-10 03:11:00,38.8,37.0,29.82,NW,309,11.0,-999.0,93,-99.99,,,0.00,meteohub,2013-03-10 08:11:00,
2013-03-10 03:16:00,38.8,37.0,29.81,NW,307,6.0,-999.0,93,-99.99,,,0.00,meteohub,2013-03-10 08:16:00,
2013-03-10 03:21:00,38.7,36.9,29.81,NW,307,20.0,-999.0,93,-99.99,,,0.00,meteohub,2013-03-10 08:21:00,
2013-03-10 03:26:00,38.5,36.7,29.80,NW,323,13.0,-999.0,93,-99.99,,,0.00,meteohub,2013-03-10 08:26:00,
2013-03-10 03:31:00,38.5,36.7,29.80,NW,304,10.0,-999.0,93,-99.99,,,0.00,meteohub,2013-03-10 08:31:00,
2013-03-10 03:36:00,38.3,36.5,29.79,WNW,288,8.0,-999.0,93,-99.99,,,0.00,meteohub,2013-03-10 08:36:00,
2013-03-10 03:41:00,38.1,36.3,29.80,NW,307,11.0,-999.0,93,-99.99,,,0.00,meteohub,2013-03-10 08:41:00,
2013-03-10 03:46:00,38.1,36.3,29.80,NNW,328,14.0,-999.0,93,-99.99,,,0.00,meteohub,2013-03-10 08:46:00,
2013-03-10 03:51:00,37.8,35.6,29.81,WNW,300,13.0,-999.0,92,-99.99,,,0.00,meteohub,2013-03-10 08:51:00,
2013-03-10 03:56:00,37.4,35.2,29.81,WNW,294,20.0,-999.0,92,-99.99,,,0.00,meteohub,2013-03-10 08:56:00,
2013-03-10 04:01:00,37.2,35.1,29.82,NW,314,22.0,-999.0,92,-99.99,,,0.00,meteohub,2013-03-10 09:01:00,
2013-03-10 04:06:00,37.0,35.2,29.82,WNW,300,18.0,-999.0,93,-99.99,,,0.00,meteohub,2013-03-10 09:06:00,
2013-03-10 04:11:00,36.9,35.1,29.83,NW,314,20.0,-999.0,93,-99.99,,,0.00,meteohub,2013-03-10 09:11:00,
2013-03-10 04:16:00,36.9,34.7,29.83,WNW,294,20.0,-999.0,92,-99.99,,,0.00,meteohub,2013-03-10 09:16:00,
2013-03-10 04:21:00,36.9,34.7,29.84,WNW,288,18.0,-999.0,92,-99.99,,,0.00,meteohub,2013-03-10 09:21:00,
2013-03-10 04:26:00,36.7,34.9,29.84,NW,318,12.0,-999.0,93,-99.99,,,0.00,meteohub,2013-03-10 09:26:00,
2013-03-10 04:31:00,36.7,34.9,29.85,NW,314,9.0,-999.0,93,-99.99,,,0.00,meteohub,2013-03-10 09:31:00,
2013-03-10 04:36:00,36.7,34.9,29.85,NW,309,14.0,-999.0,93,-99.99,,,0.00,meteohub,2013-03-10 09:36:00,
2013-03-10 04:41:00,36.5,34.3,29.84,WNW,298,10.0,-999.0,92,-99.99,,,0.00,meteohub,2013-03-10 09:41:00,
2013-03-10 04:46:00,36.3,34.5,29.83,NW,316,16.0,-999.0,93,-99.99,,,0.00,meteohub,2013-03-10 09:46:00,
2013-03-10 04:51:00,36.3,34.5,29.83,NW,322,10.0,-999.0,93,-99.99,,,0.00,meteohub,2013-03-10 09:51:00,
2013-03-10 04:56:00,36.3,34.5,29.83,NW,326,19.0,-999.0,93,-99.99,,,0.00,meteohub,2013-03-10 09:56:00,
2013-03-10 05:01:00,36.3,34.5,29.83,NW,314,8.0,-999.0,93,-99.99,,,0.00,meteohub,2013-03-10 10:01:00,
2013-03-10 05:06:00,36.0,34.2,29.83,NW,307,16.0,-999.0,93,-99.99,,,0.00,meteohub,2013-03-10 10:06:00,
2013-03-10 05:11:00,35.6,33.8,29.83,NNW,332,13.0,-999.0,93,-99.99,,,0.00,meteohub,2013-03-10 10:11:00,
2013-03-10 05:16:00,35.4,33.6,29.83,NW,311,21.0,-999.0,93,-99.99,,,0.00,meteohub,2013-03-10 10:16:00,
2013-03-10 05:21:00,35.2,33.4,29.85,WNW,294,20.0,-999.0,93,-99.99,,,0.00,meteohub,2013-03-10 10:21:00,
2013-03-10 05:27:00,35.2,33.4,29.85,WNW,287,12.0,-999.0,93,-99.99,,,0.00,meteohub,2013-03-10 10:27:00,
2013-03-10 05:32:00,35.2,33.4,29.86,NW,311,8.0,-999.0,93,-99.99,,,0.00,meteohub,2013-03-10 10:32:00,
2013-03-10 05:37:00,35.2,33.4,29.87,NNW,334,15.0,-999.0,93,-99.99,,,0.00,meteohub,2013-03-10 10:37:00,
2013-03-10 05:42:00,35.2,33.4,29.87,NW,319,17.0,-999.0,93,-99.99,,,0.00,meteohub,2013-03-10 10:42:00,
2013-03-10 05:47:00,35.1,32.9,29.85,NW,316,9.0,-999.0,92,-99.99,,,0.00,meteohub,2013-03-10 10:47:00,
2013-03-10 05:52:00,35.1,33.3,29.85,NW,314,13.0,-999.0,93,-99.99,,,0.00,meteohub,2013-03-10 10:52:00,
2013-03-10 05:57:00,35.1,33.3,29.87,NW,316,9.0,-999.0,93,-99.99,,,0.00,meteohub,2013-03-10 10:57:00,
2013-03-10 06:02:00,35.1,33.3,29.88,NW,311,13.0,-999.0,93,-99.99,,,0.00,meteohub,2013-03-10 11:02:00,
2013-03-10 06:07:00,34.9,32.7,29.87,NW,319,17.0,-999.0,92,-99.99,,,0.00,meteohub,2013-03-10 11:07:00,
2013-03-10 06:12:00,34.9,32.7,29.86,NW,310,10.0,-999.0,92,-99.99,,,0.00,meteohub,2013-03-10 11:12:00,
2013-03-10 06:17:00,34.9,32.7,29.87,WNW,302,9.0,-999.0,92,-99.99,,,0.00,meteohub,2013-03-10 11:17:00,
2013-03-10 06:22:00,34.9,32.5,29.87,NW,314,21.0,-999.0,91,-99.99,,,0.00,meteohub,2013-03-10 11:22:00,
2013-03-10 06:27:00,34.9,32.5,29.87,NW,326,13.0,-999.0,91,-99.99,,,0.00,meteohub,2013-03-10 11:27:00,
2013-03-10 06:32:00,34.9,32.2,29.88,NW,311,10.0,-999.0,90,-99.99,,,0.00,meteohub,2013-03-10 11:32:00,
2013-03-10 06:37:00,34.9,32.2,29.89,NW,307,9.0,-999.0,90,-99.99,,,0.00,meteohub,2013-03-10 11:37:00,
2013-03-10 06:42:00,35.1,32.2,29.88,WNW,298,18.0,-999.0,89,-99.99,,,0.00,meteohub,2013-03-10 11:42:00,
2013-03-10 06:47:00,35.1,32.2,29.89,NNW,335,17.0,-999.0,89,-99.99,,,0.00,meteohub,2013-03-10 11:47:00,
2013-03-10 06:52:00,35.1,32.4,29.89,WNW,297,19.0,-999.0,90,-99.99,,,0.00,meteohub,2013-03-10 11:52:00,
2013-03-10 06:57:00,34.9,32.2,29.89,WNW,303,10.0,-999.0,90,-99.99,,,0.00,meteohub,2013-03-10 11:57:00,
2013-03-10 07:02:00,34.9,32.2,29.89,NNW,334,16.0,-999.0,90,-99.99,,,0.00,meteohub,2013-03-10 12:02:00,
2013-03-10 07:07:00,34.9,32.2,29.90,NW,309,12.0,-999.0,90,-99.99,,,0.00,meteohub,2013-03-10 12:07:00,
2013-03-10 07:12:00,34.9,32.2,29.90,NW,316,15.0,-999.0,90,-99.99,,,0.00,meteohub,2013-03-10 12:12:00,
2013-03-10 07:17:00,34.9,32.0,29.90,NW,307,18.0,-999.0,89,-99.99,,,0.00,meteohub,2013-03-10 12:17:00,
2013-03-10 07:22:00,34.9,32.0,29.91,WNW,302,15.0,-999.0,89,-99.99,,,0.00,meteohub,2013-03-10 12:22:00,
2013-03-10 07:27:00,34.7,31.8,29.90,NW,326,25.0,-999.0,89,-99.99,,,0.00,meteohub,2013-03-10 12:27:00,
2013-03-10 07:32:00,34.7,31.8,29.91,WNW,298,10.0,-999.0,89,-99.99,,,0.00,meteohub,2013-03-10 12:32:00,
2013-03-10 07:37:00,34.7,31.5,29.91,North,8,15.0,-999.0,88,-99.99,,,0.00,meteohub,2013-03-10 12:37:00,
2013-03-10 07:42:00,34.5,31.6,29.91,NW,307,22.0,-999.0,89,-99.99,,,0.00,meteohub,2013-03-10 12:42:00,
2013-03-10 07:47:00,34.5,31.6,29.91,NNE,15,8.0,-999.0,89,-99.99,,,0.00,meteohub,2013-03-10 12:47:00,
2013-03-10 07:52:00,34.3,31.6,29.92,NW,316,9.0,-999.0,90,-99.99,,,0.00,meteohub,2013-03-10 12:52:00,
2013-03-10 07:57:00,34.3,31.6,29.92,North,11,19.0,-999.0,90,-99.99,,,0.00,meteohub,2013-03-10 12:57:00,
2013-03-10 08:02:00,34.2,31.3,29.92,WNW,300,16.0,-999.0,89,-99.99,,,0.00,meteohub,2013-03-10 13:02:00,
2013-03-10 08:07:00,34.2,30.9,29.92,NW,317,13.0,-999.0,88,-99.99,,,0.00,meteohub,2013-03-10 13:07:00,
2013-03-10 08:12:00,34.3,31.1,29.92,WNW,289,19.0,-999.0,88,-99.99,,,0.00,meteohub,2013-03-10 13:12:00,
2013-03-10 08:17:00,34.3,31.1,29.92,NW,326,10.0,26.0,88,-99.99,,,0.00,meteohub,2013-03-10 13:17:00,
2013-03-10 08:22:00,34.3,30.9,29.92,NW,315,17.0,29.0,87,-99.99,,,0.00,meteohub,2013-03-10 13:22:00,
2013-03-10 08:27:00,34.3,30.9,29.93,NE,40,12.0,29.0,87,-99.99,,,0.00,meteohub,2013-03-10 13:27:00,
2013-03-10 08:32:00,34.5,31.1,29.93,NW,316,21.0,29.0,87,-99.99,,,0.00,meteohub,2013-03-10 13:32:00,
2013-03-10 08:37:00,34.3,30.9,29.94,WNW,285,21.0,26.0,87,-99.99,,,0.00,meteohub,2013-03-10 13:37:00,
2013-03-10 08:42:00,34.5,30.7,29.94,NW,304,16.0,34.0,86,-99.99,,,0.00,meteohub,2013-03-10 13:42:00,
2013-03-10 08:47:00,34.5,30.7,29.95,NW,311,14.0,34.0,86,-99.99,,,0.00,meteohub,2013-03-10 13:47:00,
2013-03-10 08:52:00,34.5,30.6,29.95,NW,314,15.0,34.0,85,-99.99,,,0.00,meteohub,2013-03-10 13:52:00,
2013-03-10 08:57:00,34.5,30.6,29.96,NNW,341,16.0,31.0,85,-99.99,,,0.00,meteohub,2013-03-10 13:57:00,
2013-03-10 09:02:00,34.5,30.6,29.96,NNW,328,14.0,29.0,85,0.00,,,0.00,meteohub,2013-03-10 14:02:00,
2013-03-10 09:07:00,34.3,30.6,29.96,NNW,328,8.0,29.0,86,0.00,,,0.00,meteohub,2013-03-10 14:07:00,
2013-03-10 09:12:00,34.2,30.4,29.96,NW,323,16.0,31.0,86,0.00,,,0.00,meteohub,2013-03-10 14:12:00,
2013-03-10 09:17:00,34.0,30.2,29.96,NW,309,9.0,31.0,86,0.00,,,0.00,meteohub,2013-03-10 14:17:00,
2013-03-10 09:22:00,33.8,30.4,29.96,NNW,338,22.0,31.0,87,0.00,,,0.00,meteohub,2013-03-10 14:22:00,
2013-03-10 09:27:00,33.8,29.8,29.96,NNW,347,26.0,32.0,85,0.00,,,0.00,meteohub,2013-03-10 14:27:00,
2013-03-10 09:32:00,34.0,30.0,29.96,North,9,17.0,35.0,85,0.00,,,0.00,meteohub,2013-03-10 14:32:00,
2013-03-10 09:37:00,34.0,30.0,29.95,NNW,337,16.0,38.0,85,0.00,,,0.00,meteohub,2013-03-10 14:37:00,
2013-03-10 09:42:00,33.8,30.4,29.96,NNE,23,23.0,38.0,87,0.00,,,0.00,meteohub,2013-03-10 14:42:00,
2013-03-10 09:47:00,33.6,30.4,29.96,NW,309,21.0,38.0,88,0.00,,,0.00,meteohub,2013-03-10 14:47:00,
2013-03-10 09:52:00,33.4,30.6,29.95,NW,309,11.0,32.0,89,0.00,,,0.00,meteohub,2013-03-10 14:52:00,
2013-03-10 09:57:00,33.4,30.6,29.96,NNW,342,18.0,32.0,89,0.00,,,0.00,meteohub,2013-03-10 14:57:00,
2013-03-10 10:02:00,33.4,30.6,29.96,North,356,25.0,33.0,89,0.00,,,0.00,meteohub,2013-03-10 15:02:00,
2013-03-10 10:07:00,33.6,30.2,29.96,North,4,13.0,33.0,87,0.00,,,0.00,meteohub,2013-03-10 15:07:00,
2013-03-10 10:12:00,34.0,30.6,29.96,NNW,344,24.0,37.0,87,0.00,,,0.00,meteohub,2013-03-10 15:12:00,
2013-03-10 10:17:00,34.0,30.6,29.96,NNW,335,19.0,37.0,87,0.00,,,0.00,meteohub,2013-03-10 15:17:00,
2013-03-10 10:22:00,34.0,31.1,29.97,NNW,328,15.0,37.0,89,0.00,,,0.00,meteohub,2013-03-10 15:22:00,
2013-03-10 10:27:00,33.6,30.7,29.97,NNW,332,13.0,29.0,89,0.00,,,0.00,meteohub,2013-03-10 15:27:00,
2013-03-10 10:32:00,33.4,30.7,29.98,NNW,342,18.0,30.0,90,0.00,,,0.00,meteohub,2013-03-10 15:32:00,
2013-03-10 10:37:00,32.5,29.7,29.98,NNW,347,20.0,30.0,89,0.00,,,0.00,meteohub,2013-03-10 15:37:00,
2013-03-10 10:42:00,32.4,30.0,29.98,NW,326,18.0,37.0,91,0.00,,,0.00,meteohub,2013-03-10 15:42:00,
2013-03-10 10:47:00,32.0,29.5,29.98,NW,307,22.0,37.0,90,0.00,,,0.00,meteohub,2013-03-10 15:47:00,
2013-03-10 10:52:00,31.5,28.6,29.98,NW,307,21.0,38.0,89,0.00,,,0.00,meteohub,2013-03-10 15:52:00,
2013-03-10 10:58:00,31.5,28.6,29.99,NW,323,18.0,38.0,89,0.00,,,0.00,meteohub,2013-03-10 15:58:00,
2013-03-10 11:03:00,31.6,28.2,29.99,NNE,29,13.0,38.0,87,0.00,,,0.00,meteohub,2013-03-10 16:03:00,
2013-03-10 11:08:00,31.8,27.5,30.00,NW,316,24.0,31.0,84,0.00,,,0.00,meteohub,2013-03-10 16:08:00,
2013-03-10 11:13:00,31.6,27.1,30.00,NW,312,30.0,36.0,83,0.00,,,0.00,meteohub,2013-03-10 16:13:00,
2013-03-10 11:18:00,31.6,27.1,30.01,NW,326,22.0,36.0,83,0.00,,,0.00,meteohub,2013-03-10 16:18:00,
2013-03-10 11:23:00,31.5,26.2,30.01,NW,323,23.0,36.0,81,0.00,,,0.00,meteohub,2013-03-10 16:23:00,
2013-03-10 11:28:00,31.5,26.6,30.02,WNW,300,33.0,38.0,82,0.00,,,0.00,meteohub,2013-03-10 16:28:00,
2013-03-10 11:33:00,31.3,26.1,30.03,NNW,332,11.0,38.0,81,0.00,,,0.00,meteohub,2013-03-10 16:33:00,
2013-03-10 11:38:00,31.1,25.9,30.03,NW,307,31.0,39.0,81,0.00,,,0.00,meteohub,2013-03-10 16:38:00,
2013-03-10 11:43:00,30.9,25.5,30.03,NW,309,26.0,39.0,80,0.00,,,0.00,meteohub,2013-03-10 16:43:00,
2013-03-10 11:48:00,30.9,25.7,30.03,NW,326,20.0,39.0,81,0.00,,,0.00,meteohub,2013-03-10 16:48:00,
2013-03-10 11:53:00,31.3,26.1,30.04,North,8,28.0,37.0,81,0.00,,,0.00,meteohub,2013-03-10 16:53:00,
2013-03-10 11:58:00,31.3,26.1,30.04,NW,307,14.0,37.0,81,0.00,,,0.00,meteohub,2013-03-10 16:58:00,
2013-03-10 12:03:00,31.5,26.2,30.04,WNW,298,16.0,35.0,81,0.00,,,0.00,meteohub,2013-03-10 17:03:00,
2013-03-10 12:08:00,31.3,25.5,30.04,North,354,30.0,35.0,79,0.00,,,0.00,meteohub,2013-03-10 17:08:00,
2013-03-10 12:13:00,31.3,25.0,30.04,North,0,17.0,34.0,77,0.00,,,0.00,meteohub,2013-03-10 17:13:00,
2013-03-10 12:19:00,31.5,25.3,30.05,WNW,297,15.0,36.0,78,0.00,,,0.00,meteohub,2013-03-10 17:19:00,
2013-03-10 12:24:00,30.9,25.7,30.05,NW,314,20.0,36.0,81,0.00,,,0.00,meteohub,2013-03-10 17:24:00,
2013-03-10 12:29:00,30.9,25.7,30.05,NW,310,21.0,36.0,81,0.00,,,0.00,meteohub,2013-03-10 17:29:00,
2013-03-10 12:34:00,30.7,24.6,30.06,WNW,294,24.0,34.0,78,0.00,,,0.00,meteohub,2013-03-10 17:34:00,
2013-03-10 12:39:00,30.7,24.6,30.06,NW,326,21.0,35.0,78,0.00,,,0.00,meteohub,2013-03-10 17:39:00,
2013-03-10 12:44:00,31.1,25.0,30.05,North,350,20.0,37.0,78,0.00,,,0.00,meteohub,2013-03-10 17:44:00,
2013-03-10 12:49:00,31.3,25.0,30.05,NW,321,24.0,37.0,77,0.00,,,0.00,meteohub,2013-03-10 17:49:00,
2013-03-10 12:54:00,30.9,24.8,30.06,NW,326,17.0,37.0,78,0.00,,,0.00,meteohub,2013-03-10 17:54:00,
2013-03-10 12:59:00,30.9,24.3,30.06,NNW,337,16.0,34.0,76,0.00,,,0.00,meteohub,2013-03-10 17:59:00,
2013-03-10 13:04:00,30.7,24.4,30.06,NNW,330,18.0,33.0,77,0.00,,,0.00,meteohub,2013-03-10 18:04:00,
2013-03-10 13:09:00,30.7,24.6,30.06,NW,307,27.0,35.0,78,0.00,,,0.00,meteohub,2013-03-10 18:09:00,
2013-03-10 13:14:00,30.4,24.1,30.07,NNW,340,27.0,35.0,77,0.00,,,0.00,meteohub,2013-03-10 18:14:00,
2013-03-10 13:19:00,30.4,24.1,30.07,NW,319,24.0,35.0,77,0.00,,,0.00,meteohub,2013-03-10 18:19:00,
2013-03-10 13:24:00,30.6,24.3,30.07,NNW,332,10.0,35.0,77,0.00,,,0.00,meteohub,2013-03-10 18:24:00,
2013-03-10 13:29:00,30.7,23.4,30.07,WNW,283,14.0,35.0,74,0.00,,,0.00,meteohub,2013-03-10 18:29:00,
2013-03-10 13:34:00,30.7,23.7,30.08,NW,318,12.0,35.0,75,0.00,,,0.00,meteohub,2013-03-10 18:34:00,
2013-03-10 13:39:00,30.9,24.3,30.08,NNW,340,20.0,35.0,76,0.00,,,0.00,meteohub,2013-03-10 18:39:00,
2013-03-10 13:44:00,30.9,24.3,30.08,NW,326,15.0,35.0,76,0.00,,,0.00,meteohub,2013-03-10 18:44:00,
2013-03-10 13:49:00,30.7,23.7,30.08,NW,326,28.0,35.0,75,0.00,,,0.00,meteohub,2013-03-10 18:49:00,
2013-03-10 13:54:00,30.7,24.1,30.07,NNW,339,25.0,30.0,76,0.00,,,0.00,meteohub,2013-03-10 18:54:00,
2013-03-10 13:59:00,30.6,23.5,30.08,NNW,328,19.0,33.0,75,0.00,,,0.00,meteohub,2013-03-10 18:59:00,
2013-03-10 14:04:00,30.2,23.5,30.08,North,349,23.0,33.0,76,0.00,,,0.00,meteohub,2013-03-10 19:04:00,
2013-03-10 14:09:00,30.2,23.2,30.08,NW,326,35.0,35.0,75,0.00,,,0.00,meteohub,2013-03-10 19:09:00,
2013-03-10 14:14:00,30.4,23.2,30.08,North,354,11.0,32.0,74,0.00,,,0.00,meteohub,2013-03-10 19:14:00,
2013-03-10 14:19:00,30.7,23.7,30.07,NNW,345,22.0,35.0,75,0.00,,,0.00,meteohub,2013-03-10 19:19:00,
2013-03-10 14:24:00,30.6,23.9,30.07,NW,312,11.0,35.0,76,0.00,,,0.00,meteohub,2013-03-10 19:24:00,
2013-03-10 14:29:00,30.0,24.1,30.08,NW,307,23.0,32.0,78,0.00,,,0.00,meteohub,2013-03-10 19:29:00,
2013-03-10 14:34:00,29.8,23.9,30.09,NW,316,24.0,33.0,78,0.00,,,0.00,meteohub,2013-03-10 19:34:00,
2013-03-10 14:39:00,29.3,23.0,30.08,WNW,303,16.0,33.0,77,0.00,,,0.00,meteohub,2013-03-10 19:39:00,
2013-03-10 14:44:00,29.1,22.8,30.08,NNW,338,14.0,33.0,77,0.00,,,0.00,meteohub,2013-03-10 19:44:00,
2013-03-10 14:49:00,29.5,23.2,30.08,NW,326,16.0,36.0,77,0.00,,,0.00,meteohub,2013-03-10 19:49:00,
2013-03-10 14:54:00,29.5,22.8,30.08,WNW,301,24.0,36.0,76,0.00,,,0.00,meteohub,2013-03-10 19:54:00,
2013-03-10 14:59:00,29.1,22.5,30.08,NW,312,16.0,36.0,76,0.00,,,0.00,meteohub,2013-03-10 19:59:00,
2013-03-10 15:05:00,29.1,22.5,30.09,NNW,338,19.0,39.0,76,0.00,,,0.00,meteohub,2013-03-10 20:05:00,
2013-03-10 15:10:00,29.1,22.8,30.10,North,350,12.0,39.0,77,0.00,,,0.00,meteohub,2013-03-10 20:10:00,
2013-03-10 15:15:00,29.1,22.3,30.10,NW,316,25.0,36.0,75,0.00,,,0.00,meteohub,2013-03-10 20:15:00,
2013-03-10 15:20:00,28.9,22.1,30.10,North,353,18.0,36.0,75,0.00,,,0.00,meteohub,2013-03-10 20:20:00,
2013-03-10 15:25:00,28.9,22.3,30.10,NNW,343,23.0,35.0,76,0.00,,,0.00,meteohub,2013-03-10 20:25:00,
2013-03-10 15:30:00,28.8,22.5,30.10,NW,314,14.0,35.0,77,0.00,,,0.00,meteohub,2013-03-10 20:30:00,
2013-03-10 15:35:00,28.8,22.5,30.11,NW,317,17.0,35.0,77,0.00,,,0.00,meteohub,2013-03-10 20:35:00,
2013-03-10 15:40:00,28.9,22.6,30.12,NW,326,9.0,38.0,77,0.00,,,0.00,meteohub,2013-03-10 20:40:00,
2013-03-10 15:45:00,29.1,22.5,30.12,WNW,295,20.0,38.0,76,0.00,,,0.00,meteohub,2013-03-10 20:45:00,
2013-03-10 15:50:00,29.1,23.2,30.12,NW,309,18.0,29.0,78,0.00,,,0.00,meteohub,2013-03-10 20:50:00,
2013-03-10 15:55:00,28.9,23.0,30.12,NNW,335,16.0,28.0,78,0.00,,,0.00,meteohub,2013-03-10 20:55:00,
2013-03-10 16:00:00,28.8,22.8,30.13,NNW,338,8.0,29.0,78,0.00,,,0.00,meteohub,2013-03-10 21:00:00,
2013-03-10 16:05:00,28.8,22.5,30.13,NW,323,14.0,29.0,77,0.00,,,0.00,meteohub,2013-03-10 21:05:00,
2013-03-10 16:10:00,28.8,22.1,30.13,North,8,11.0,31.0,76,0.00,,,0.00,meteohub,2013-03-10 21:10:00,
2013-03-10 16:15:00,28.9,22.1,30.13,WNW,301,15.0,29.0,75,0.00,,,0.00,meteohub,2013-03-10 21:15:00,
2013-03-10 16:20:00,28.9,22.1,30.13,NNW,347,17.0,29.0,75,0.00,,,0.00,meteohub,2013-03-10 21:20:00,
2013-03-10 16:25:00,28.9,22.1,30.13,NW,309,24.0,29.0,75,0.00,,,0.00,meteohub,2013-03-10 21:25:00,
2013-03-10 16:30:00,28.9,22.1,30.13,NNW,332,23.0,29.0,75,0.00,,,0.00,meteohub,2013-03-10 21:30:00,
2013-03-10 16:35:00,29.1,22.5,30.13,NW,321,10.0,29.0,76,0.00,,,0.00,meteohub,2013-03-10 21:35:00,
2013-03-10 16:40:00,28.9,22.6,30.14,NNE,25,10.0,35.0,77,0.00,,,0.00,meteohub,2013-03-10 21:40:00,
2013-03-10 16:45:00,28.8,22.1,30.14,NW,317,12.0,35.0,76,0.00,,,0.00,meteohub,2013-03-10 21:45:00,
2013-03-10 16:50:00,28.9,22.3,30.14,NNW,340,16.0,35.0,76,0.00,,,0.00,meteohub,2013-03-10 21:50:00,
2013-03-10 16:55:00,28.9,22.3,30.14,NW,309,17.0,30.0,76,0.00,,,0.00,meteohub,2013-03-10 21:55:00,
2013-03-10 17:00:00,29.1,22.8,30.14,NW,309,13.0,30.0,77,0.00,,,0.00,meteohub,2013-03-10 22:00:00,
2013-03-10 17:05:00,28.9,22.6,30.15,NW,321,21.0,25.0,77,0.00,,,0.00,meteohub,2013-03-10 22:05:00,
2013-03-10 17:10:00,28.6,21.7,30.15,NNW,335,15.0,30.0,75,0.00,,,0.00,meteohub,2013-03-10 22:10:00,
2013-03-10 17:15:00,28.8,21.9,30.15,North,354,21.0,34.0,75,0.00,,,0.00,meteohub,2013-03-10 22:15:00,
2013-03-10 17:20:00,28.8,21.6,30.15,NNW,340,19.0,34.0,74,0.00,,,0.00,meteohub,2013-03-10 22:20:00,
2013-03-10 17:25:00,28.8,21.9,30.15,NW,323,6.0,34.0,75,0.00,,,0.00,meteohub,2013-03-10 22:25:00,
2013-03-10 17:30:00,28.8,21.9,30.16,NW,323,13.0,30.0,75,0.00,,,0.00,meteohub,2013-03-10 22:30:00,
2013-03-10 17:35:00,28.9,22.3,30.16,NW,306,11.0,25.0,76,0.00,,,0.00,meteohub,2013-03-10 22:35:00,
2013-03-10 17:40:00,28.9,22.6,30.15,NW,314,9.0,27.0,77,0.00,,,0.00,meteohub,2013-03-10 22:40:00,
2013-03-10 17:46:00,28.9,22.3,30.16,NW,326,16.0,27.0,76,0.00,,,0.00,meteohub,2013-03-10 22:46:00,
2013-03-10 17:51:00,28.9,22.6,30.16,NW,318,12.0,27.0,77,0.00,,,0.00,meteohub,2013-03-10 22:51:00,
2013-03-10 17:56:00,28.8,22.8,30.16,NW,323,11.0,25.0,78,0.00,,,0.00,meteohub,2013-03-10 22:56:00,
2013-03-10 18:01:00,28.6,22.6,30.16,NNW,337,19.0,29.0,78,0.00,,,0.00,meteohub,2013-03-10 23:01:00,
2013-03-10 18:06:00,28.2,22.3,30.17,WNW,301,9.0,29.0,78,0.00,,,0.00,meteohub,2013-03-10 23:06:00,
2013-03-10 18:11:00,28.2,21.9,30.17,NNW,335,11.0,29.0,77,0.00,,,0.00,meteohub,2013-03-10 23:11:00,
2013-03-10 18:16:00,28.2,21.9,30.17,NW,318,8.0,26.0,77,0.00,,,0.00,meteohub,2013-03-10 23:16:00,
2013-03-10 18:21:00,28.2,21.9,30.17,WNW,296,17.0,24.0,77,0.00,,,0.00,meteohub,2013-03-10 23:21:00,
2013-03-10 18:26:00,28.2,21.9,30.18,NNW,343,15.0,24.0,77,0.00,,,0.00,meteohub,2013-03-10 23:26:00,
2013-03-10 18:31:00,28.2,21.9,30.18,NNW,338,18.0,25.0,77,0.00,,,0.00,meteohub,2013-03-10 23:31:00,
2013-03-10 18:36:00,28.2,21.9,30.18,NW,307,11.0,25.0,77,0.00,,,0.00,meteohub,2013-03-10 23:36:00,
2013-03-10 18:41:00,28.2,21.9,30.18,NNW,342,12.0,25.0,77,0.00,,,0.00,meteohub,2013-03-10 23:41:00,
2013-03-10 18:46:00,28.2,21.9,30.19,NW,306,10.0,25.0,77,0.00,,,0.00,meteohub,2013-03-10 23:46:00,
2013-03-10 18:51:00,28.2,21.9,30.19,NNW,332,16.0,25.0,77,0.00,,,0.00,meteohub,2013-03-10 23:51:00,
2013-03-10 18:57:00,28.2,21.9,30.19,NNW,344,9.0,21.0,77,0.00,,,0.00,meteohub,2013-03-10 23:57:00,
2013-03-10 19:02:00,28.2,22.3,30.19,NNW,328,11.0,21.0,78,0.00,,,0.00,meteohub,2013-03-11 00:02:00,
2013-03-10 19:07:00,28.2,22.3,30.19,NNW,340,9.0,21.0,78,0.00,,,0.00,meteohub,2013-03-11 00:07:00,
2013-03-10 19:12:00,28.4,22.5,30.19,NW,323,10.0,23.0,78,0.00,,,0.00,meteohub,2013-03-11 00:12:00,
2013-03-10 19:17:00,28.6,22.6,30.19,NNW,341,12.0,23.0,78,0.00,,,0.00,meteohub,2013-03-11 00:17:00,
2013-03-10 19:22:00,28.6,22.8,30.19,NW,309,13.0,20.0,79,0.00,,,0.00,meteohub,2013-03-11 00:22:00,
2013-03-10 19:27:00,28.6,22.8,30.20,NW,321,4.0,19.0,79,0.00,,,0.00,meteohub,2013-03-11 00:27:00,
2013-03-10 19:32:00,28.6,22.8,30.20,WNW,302,10.0,19.0,79,0.00,,,0.00,meteohub,2013-03-11 00:32:00,
2013-03-10 19:37:00,28.6,22.6,30.20,NW,323,19.0,23.0,78,0.00,,,0.00,meteohub,2013-03-11 00:37:00,
2013-03-10 19:42:00,28.6,22.8,30.20,NNE,32,6.0,24.0,79,0.00,,,0.00,meteohub,2013-03-11 00:42:00,
2013-03-10 19:47:00,28.6,22.8,30.20,North,357,8.0,24.0,79,0.00,,,0.00,meteohub,2013-03-11 00:47:00,
2013-03-10 19:52:00,28.8,23.4,30.21,NW,323,7.0,24.0,80,0.00,,,0.00,meteohub,2013-03-11 00:52:00,
2013-03-10 19:57:00,28.8,23.4,30.21,WNW,296,9.0,17.0,80,0.00,,,0.00,meteohub,2013-03-11 00:57:00,
2013-03-10 20:02:00,28.8,23.0,30.21,NW,309,5.0,17.0,79,0.00,,,0.00,meteohub,2013-03-11 01:02:00,
2013-03-10 20:07:00,28.8,22.8,30.21,NW,304,16.0,22.0,78,0.00,,,0.00,meteohub,2013-03-11 01:07:00,
2013-03-10 20:12:00,28.6,22.8,30.21,NW,317,18.0,23.0,79,0.00,,,0.00,meteohub,2013-03-11 01:12:00,
2013-03-10 20:17:00,28.6,22.8,30.22,NNW,328,12.0,23.0,79,0.00,,,0.00,meteohub,2013-03-11 01:17:00,
2013-03-10 20:22:00,28.8,22.8,30.22,NNW,343,21.0,24.0,78,0.00,,,0.00,meteohub,2013-03-11 01:22:00,
2013-03-10 20:27:00,28.6,22.3,30.22,NNE,31,18.0,24.0,77,0.00,,,0.00,meteohub,2013-03-11 01:27:00,
2013-03-10 20:32:00,28.8,22.8,30.22,NNW,345,11.0,26.0,78,0.00,,,0.00,meteohub,2013-03-11 01:32:00,
2013-03-10 20:37:00,28.8,22.8,30.22,NW,321,12.0,26.0,78,0.00,,,0.00,meteohub,2013-03-11 01:37:00,
2013-03-10 20:42:00,28.8,23.0,30.22,NW,309,6.0,26.0,79,0.00,,,0.00,meteohub,2013-03-11 01:42:00,
2013-03-10 20:47:00,28.8,23.0,30.22,NNW,329,12.0,25.0,79,0.00,,,0.00,meteohub,2013-03-11 01:47:00,
2013-03-10 20:52:00,28.8,23.4,30.22,NW,323,8.0,22.0,80,0.00,,,0.00,meteohub,2013-03-11 01:52:00,
2013-03-10 20:57:00,28.9,23.5,30.22,NW,317,10.0,20.0,80,0.00,,,0.00,meteohub,2013-03-11 01:57:00,
2013-03-10 21:02:00,28.9,23.5,30.21,WNW,300,11.0,20.0,80,0.00,,,0.00,meteohub,2013-03-11 02:02:00,
2013-03-10 21:08:00,28.9,23.5,30.22,NW,321,6.0,23.0,80,0.00,,,0.00,meteohub,2013-03-11 02:08:00,
2013-03-10 21:13:00,28.9,23.5,30.22,NW,309,15.0,23.0,80,0.00,,,0.00,meteohub,2013-03-11 02:13:00,
2013-03-10 21:18:00,28.9,23.5,30.22,NW,307,14.0,20.0,80,0.00,,,0.00,meteohub,2013-03-11 02:18:00,
2013-03-10 21:23:00,28.9,23.2,30.22,North,353,9.0,20.0,79,0.00,,,0.00,meteohub,2013-03-11 02:23:00,
2013-03-10 21:28:00,28.9,23.2,30.22,North,354,9.0,20.0,79,0.00,,,0.00,meteohub,2013-03-11 02:28:00,
2013-03-10 21:33:00,28.9,23.2,30.22,NW,316,10.0,20.0,79,0.00,,,0.00,meteohub,2013-03-11 02:33:00,
2013-03-10 21:38:00,28.9,23.2,30.22,WNW,303,11.0,20.0,79,0.00,,,0.00,meteohub,2013-03-11 02:38:00,
2013-03-10 21:43:00,28.9,23.2,30.23,NNW,332,14.0,20.0,79,0.00,,,0.00,meteohub,2013-03-11 02:43:00,
2013-03-10 21:48:00,28.9,23.0,30.23,NW,326,19.0,21.0,78,0.00,,,0.00,meteohub,2013-03-11 02:48:00,
2013-03-10 21:53:00,28.9,22.6,30.23,North,357,19.0,23.0,77,0.00,,,0.00,meteohub,2013-03-11 02:53:00,
2013-03-10 21:58:00,28.9,23.0,30.23,NW,311,8.0,24.0,78,0.00,,,0.00,meteohub,2013-03-11 02:58:00,
2013-03-10 22:03:00,28.9,22.6,30.23,WNW,299,16.0,24.0,77,0.00,,,0.00,meteohub,2013-03-11 03:03:00,
2013-03-10 22:08:00,28.9,22.6,30.23,WNW,300,14.0,24.0,77,0.00,,,0.00,meteohub,2013-03-11 03:08:00,
2013-03-10 22:13:00,28.8,22.1,30.23,NW,321,13.0,23.0,76,0.00,,,0.00,meteohub,2013-03-11 03:13:00,
2013-03-10 22:18:00,28.8,22.5,30.24,NW,316,15.0,25.0,77,0.00,,,0.00,meteohub,2013-03-11 03:18:00,
2013-03-10 22:23:00,28.8,22.1,30.24,NNW,332,18.0,25.0,76,0.00,,,0.00,meteohub,2013-03-11 03:23:00,
2013-03-10 22:28:00,28.8,22.5,30.24,NNW,343,19.0,25.0,77,0.00,,,0.00,meteohub,2013-03-11 03:28:00,
2013-03-10 22:33:00,28.8,22.5,30.24,NW,326,16.0,25.0,77,0.00,,,0.00,meteohub,2013-03-11 03:33:00,
2013-03-10 22:38:00,28.8,22.8,30.25,NNW,335,10.0,25.0,78,0.00,,,0.00,meteohub,2013-03-11 03:38:00,
2013-03-10 22:43:00,28.8,22.8,30.25,NW,314,11.0,24.0,78,0.00,,,0.00,meteohub,2013-03-11 03:43:00,
2013-03-10 22:48:00,28.8,22.5,30.25,WNW,298,12.0,23.0,77,0.00,,,0.00,meteohub,2013-03-11 03:48:00,
2013-03-10 22:53:00,28.9,22.6,30.25,NW,309,8.0,26.0,77,0.00,,,0.00,meteohub,2013-03-11 03:53:00,
2013-03-10 22:58:00,28.8,22.1,30.25,NW,307,9.0,26.0,76,0.00,,,0.00,meteohub,2013-03-11 03:58:00,
2013-03-10 23:00:00,28.8,21.9,30.25,NNW,338,7.0,26.0,75,0.00,,,0.00,meteohub,2013-03-11 04:00:00,
2013-03-10 23:05:00,28.8,21.9,30.26,NNW,341,16.0,21.0,75,0.00,,,0.00,meteohub,2013-03-11 04:05:00,
2013-03-10 23:10:00,28.6,21.7,30.26,NNW,333,10.0,21.0,75,0.00,,,0.00,meteohub,2013-03-11 04:10:00,
2013-03-10 23:15:00,28.6,21.7,30.26,WNW,298,16.0,22.0,75,0.00,,,0.00,meteohub,2013-03-11 04:15:00,
2013-03-10 23:20:00,28.6,21.7,30.26,NW,323,14.0,24.0,75,0.00,,,0.00,meteohub,2013-03-11 04:20:00,
2013-03-10 23:25:00,28.6,21.7,30.26,WNW,300,11.0,24.0,75,0.00,,,0.00,meteohub,2013-03-11 04:25:00,
2013-03-10 23:30:00,28.6,21.7,30.26,NW,307,8.0,24.0,75,0.00,,,0.00,meteohub,2013-03-11 04:30:00,
2013-03-10 23:35:00,28.6,21.9,30.26,NNW,328,8.0,22.0,76,0.00,,,0.00,meteohub,2013-03-11 04:35:00,
2013-03-10 23:40:00,28.6,21.7,30.26,NNW,342,10.0,21.0,75,0.00,,,0.00,meteohub,2013-03-11 04:40:00,
2013-03-10 23:45:00,28.6,21.7,30.25,NW,312,11.0,21.0,75,0.00,,,0.00,meteohub,2013-03-11 04:45:00,
2013-03-10 23:50:00,28.6,21.7,30.25,NNW,342,9.0,22.0,75,0.00,,,0.00,meteohub,2013-03-11 04:50:00,
2013-03-10 23:55:00,28.6,21.7,30.25,NW,308,9.0,21.0,75,0.00,,,0.00,meteohub,2013-03-11 04:55:00,